KHPN/HPN METAR and TAF weather

Enter ICAO airport designator
Station Type Date Time Source
KHPN METAR 2022/10/01 07:56 UTC NOAA

KHPN 010756Z AUTO 05005KT 10SM SCT100 OVC120 12/09 A3009 RMK AO2 RAE17 SLP189 P0000 T01220089


Station Type Date Time Source
KHPN Decoded METAR 2022/10/01 07:56 UTC NOAA

WHITE PLAINS WESTCHESTER, NY, United States (KHPN) 41-04N 073-42W 121M
Oct 01, 2022 - 03:56 AM EDT / 2022.10.01 0756 UTC
Wind: from the NE (050 degrees) at 6 MPH (5 KT):0
Visibility: 10 mile(s):0
Sky conditions: overcast
Precipitation last hour: A trace
Temperature: 54.0 F (12.2 C)
Dew Point: 48.0 F (8.9 C)
Relative Humidity: 80%
Pressure (altimeter): 30.09 in. Hg (1018 hPa)
ob: KHPN 010756Z AUTO 05005KT 10SM SCT100 OVC120 12/09 A3009 RMK AO2 RAE17 SLP189 P0000 T01220089
cycle: 8

Station Type Date Time Source
KHPN TAF 2022/10/01 06:30 UTC NOAA

TAF KHPN 010527Z 0106/0206 03006KT P6SM BKN035 OVC150
TEMPO 0106/0108 -RA SCT035
FM010800 03010KT P6SM -RA BKN035 OVC100
FM011200 05013G18KT 6SM -RA BR OVC020
FM011600 03015G21KT 2SM RA BR SCT009 OVC015
FM012200 03012G20KT 3SM -RA BR OVC010
AMD NOT SKED

Example: see airport list